createdAt,value
2018-12-21T00:01:28.172Z,3.90
2018-12-21T00:04:07.014Z,3.90
2018-12-21T00:06:44.498Z,3.90
2018-12-21T00:09:23.603Z,4.00
2018-12-21T00:12:03.305Z,3.90
2018-12-21T00:14:38.828Z,3.90
2018-12-21T00:17:17.523Z,4.00
2018-12-21T00:19:50.398Z,4.00
2018-12-21T00:22:29.402Z,4.10
2018-12-21T00:25:04.659Z,4.10
2018-12-21T00:27:42.147Z,4.10
2018-12-21T00:30:22.622Z,4.10
2018-12-21T00:33:07.045Z,4.10
2018-12-21T00:35:51.963Z,4.20
2018-12-21T00:38:26.506Z,4.20
2018-12-21T00:41:13.203Z,4.20
2018-12-21T00:43:58.850Z,4.30
2018-12-21T00:46:45.502Z,4.30
2018-12-21T00:49:18.615Z,4.40
2018-12-21T00:51:58.067Z,4.40
2018-12-21T00:54:33.665Z,4.50
2018-12-21T00:57:09.338Z,4.50
2018-12-21T00:59:49.854Z,4.50
2018-12-21T01:02:28.629Z,4.40
2018-12-21T01:05:04.026Z,4.30
2018-12-21T01:07:42.529Z,4.20
2018-12-21T01:10:17.418Z,4.20
2018-12-21T01:13:00.379Z,4.10
2018-12-21T01:15:41.601Z,4.10
2018-12-21T01:18:20.220Z,4.10
2018-12-21T01:20:55.306Z,4.10
2018-12-21T01:23:30.532Z,4.10
2018-12-21T01:26:08.171Z,4.10
2018-12-21T01:28:45.519Z,4.00
2018-12-21T01:31:24.534Z,4.00
2018-12-21T01:34:03.951Z,4.00
2018-12-21T01:36:42.655Z,4.00
2018-12-21T01:39:18.252Z,4.00
2018-12-21T01:41:53.126Z,4.10
2018-12-21T01:44:29.744Z,4.10
2018-12-21T01:47:06.007Z,4.10
2018-12-21T01:49:48.443Z,4.20
2018-12-21T01:52:27.239Z,4.20
2018-12-21T01:55:06.278Z,4.10
2018-12-21T01:57:44.892Z,4.10
2018-12-21T02:00:26.603Z,4.10
2018-12-21T02:03:08.040Z,4.00
2018-12-21T02:05:45.563Z,4.00
2018-12-21T02:08:22.759Z,4.00
2018-12-21T02:11:01.367Z,3.90
2018-12-21T02:13:34.661Z,3.90
2018-12-21T02:16:09.206Z,3.90
2018-12-21T02:18:44.630Z,4.10
2018-12-21T02:21:22.021Z,4.10
2018-12-21T02:24:01.101Z,4.10
2018-12-21T02:26:39.786Z,4.10
2018-12-21T02:29:16.257Z,4.20
2018-12-21T02:31:55.549Z,4.10
2018-12-21T02:34:24.678Z,4.10
2018-12-21T02:37:00.186Z,4.10
2018-12-21T02:39:33.068Z,4.10
2018-12-21T02:42:07.668Z,4.00
2018-12-21T02:44:43.292Z,3.90
2018-12-21T02:47:22.329Z,3.80
2018-12-21T02:49:57.616Z,3.80
2018-12-21T02:52:33.029Z,3.90
2018-12-21T02:55:10.558Z,3.90
2018-12-21T02:57:49.808Z,3.90
2018-12-21T03:00:27.009Z,3.90
2018-12-21T03:03:02.356Z,3.90
2018-12-21T03:05:37.566Z,4.00
2018-12-21T03:08:16.998Z,4.10
2018-12-21T03:10:57.283Z,4.20
2018-12-21T03:13:36.551Z,4.10
2018-12-21T03:16:15.827Z,4.10
2018-12-21T03:18:53.342Z,4.10
2018-12-21T03:21:30.843Z,4.10
2018-12-21T03:24:10.159Z,4.20
2018-12-21T03:26:48.511Z,4.30
2018-12-21T03:29:28.018Z,4.40
2018-12-21T03:32:06.979Z,4.60
2018-12-21T03:34:46.120Z,4.70
2018-12-21T03:37:25.494Z,4.80
2018-12-21T03:40:07.091Z,4.90
2018-12-21T03:42:45.706Z,5.00
2018-12-21T03:45:27.209Z,4.90
2018-12-21T03:48:05.887Z,4.80
2018-12-21T03:50:47.499Z,4.80
2018-12-21T03:53:28.544Z,4.80
2018-12-21T03:56:03.600Z,4.80
2018-12-21T03:58:40.689Z,4.90
2018-12-21T04:01:15.751Z,5.00
2018-12-21T04:03:52.862Z,5.00
2018-12-21T04:06:30.383Z,5.00
2018-12-21T04:09:09.594Z,5.10
2018-12-21T04:11:46.091Z,5.20
2018-12-21T04:14:21.333Z,5.20
2018-12-21T04:17:00.660Z,5.30
2018-12-21T04:19:29.914Z,5.30
2018-12-21T04:22:02.666Z,5.40
2018-12-21T04:24:37.289Z,5.40
2018-12-21T04:27:16.422Z,5.40
2018-12-21T04:29:53.698Z,5.40
2018-12-21T04:32:33.097Z,5.30
2018-12-21T04:35:12.100Z,5.40
2018-12-21T04:37:51.285Z,5.40
2018-12-21T04:40:30.541Z,5.40
2018-12-21T04:43:06.294Z,5.50
2018-12-21T04:45:42.151Z,5.50
2018-12-21T04:48:21.351Z,5.50
2018-12-21T04:51:00.822Z,5.50
2018-12-21T04:53:40.033Z,5.50
2018-12-21T04:56:19.513Z,5.50
2018-12-21T04:58:58.861Z,5.60
2018-12-21T05:01:38.491Z,5.50
2018-12-21T05:04:19.828Z,5.60
2018-12-21T05:06:57.310Z,5.50
2018-12-21T05:09:36.253Z,5.50
2018-12-21T05:12:15.690Z,5.50
2018-12-21T05:14:51.019Z,5.40
2018-12-21T05:17:23.788Z,5.20
2018-12-21T05:19:58.627Z,5.10
2018-12-21T05:22:31.510Z,5.00
2018-12-21T05:25:10.717Z,4.90
2018-12-21T05:27:49.491Z,4.70
2018-12-21T05:30:28.851Z,4.70
2018-12-21T05:33:07.983Z,4.70
2018-12-21T05:35:47.162Z,4.60
2018-12-21T05:38:24.634Z,4.60
2018-12-21T05:41:03.814Z,4.60
2018-12-21T05:43:42.948Z,4.60
2018-12-21T05:46:18.358Z,4.60
2018-12-21T05:48:51.251Z,4.60
2018-12-21T05:51:27.997Z,4.60
2018-12-21T05:54:07.336Z,4.60
2018-12-21T05:56:48.795Z,4.60
2018-12-21T05:59:23.397Z,4.60
2018-12-21T06:02:05.534Z,4.60
2018-12-21T06:04:47.550Z,4.60
2018-12-21T06:07:28.408Z,4.50
2018-12-21T06:10:08.186Z,4.50
2018-12-21T06:12:43.363Z,4.50
2018-12-21T06:15:20.610Z,4.50
2018-12-21T06:17:56.034Z,4.40
2018-12-21T06:20:35.252Z,4.40
2018-12-21T06:23:17.667Z,4.50
2018-12-21T06:25:56.416Z,4.50
2018-12-21T06:28:31.544Z,4.50
2018-12-21T06:31:09.039Z,4.50
2018-12-21T06:33:46.427Z,4.60
2018-12-21T06:36:23.875Z,4.70
2018-12-21T06:39:05.297Z,4.80
2018-12-21T06:41:38.158Z,4.80
2018-12-21T06:44:16.828Z,4.80
2018-12-21T06:46:56.010Z,4.90
2018-12-21T06:49:35.412Z,5.00
2018-12-21T06:52:14.870Z,5.00
2018-12-21T06:54:50.059Z,5.00
2018-12-21T06:57:28.673Z,5.00
2018-12-21T07:00:08.369Z,5.00
2018-12-21T07:02:47.447Z,5.00
2018-12-21T07:05:26.853Z,4.90
2018-12-21T07:08:06.165Z,4.80
2018-12-21T07:10:41.280Z,4.70
2018-12-21T07:13:20.557Z,4.70
2018-12-21T07:16:00.412Z,4.70
2018-12-21T07:18:39.649Z,4.60
2018-12-21T07:21:18.442Z,4.60
2018-12-21T07:23:53.888Z,4.60
2018-12-21T07:26:33.058Z,4.60
2018-12-21T07:29:08.579Z,4.60
2018-12-21T07:31:47.817Z,4.60
2018-12-21T07:34:27.046Z,4.60
2018-12-21T07:37:02.218Z,4.60
2018-12-21T07:39:37.380Z,4.60
2018-12-21T07:42:16.620Z,4.60
2018-12-21T07:44:59.041Z,4.60
2018-12-21T07:47:33.827Z,4.60
2018-12-21T07:50:05.938Z,4.60
2018-12-21T07:52:41.345Z,4.70
2018-12-21T07:55:16.037Z,4.80
2018-12-21T07:57:58.655Z,4.80
2018-12-21T08:00:39.986Z,4.90
2018-12-21T08:03:14.708Z,4.80
2018-12-21T08:05:53.875Z,4.80
2018-12-21T08:08:29.689Z,4.80
2018-12-21T08:11:08.740Z,4.90
2018-12-21T08:13:48.127Z,4.90
2018-12-21T08:16:27.212Z,5.10
2018-12-21T08:19:09.924Z,5.20
2018-12-21T08:21:44.705Z,5.30
2018-12-21T08:24:27.418Z,5.30
2018-12-21T08:27:02.338Z,5.40
2018-12-21T08:29:37.824Z,5.50
2018-12-21T08:32:19.406Z,5.60
2018-12-21T08:35:02.683Z,5.70
2018-12-21T08:37:37.702Z,5.80
2018-12-21T08:40:15.110Z,5.90
2018-12-21T08:42:54.094Z,5.90
2018-12-21T08:45:23.266Z,5.90
2018-12-21T08:47:58.633Z,5.80
2018-12-21T08:50:33.797Z,5.80
2018-12-21T08:53:09.005Z,5.80
2018-12-21T08:55:44.286Z,5.80
2018-12-21T08:58:23.378Z,5.80
2018-12-21T09:01:02.635Z,5.70
2018-12-21T09:03:38.178Z,5.80
2018-12-21T09:06:18.481Z,5.80
2018-12-21T09:08:53.905Z,5.80
2018-12-21T09:11:27.064Z,5.80
2018-12-21T09:14:01.774Z,5.70
2018-12-21T09:16:40.930Z,5.60
2018-12-21T09:19:23.418Z,5.60
2018-12-21T09:22:00.010Z,5.60
2018-12-21T09:24:33.709Z,5.60
2018-12-21T09:27:12.408Z,5.70
2018-12-21T09:29:47.976Z,5.60
2018-12-21T09:32:22.803Z,5.80
2018-12-21T09:35:02.086Z,6.00
2018-12-21T09:37:34.960Z,6.10
2018-12-21T09:40:10.817Z,6.10
2018-12-21T09:42:48.268Z,6.10
2018-12-21T09:45:30.855Z,6.20
2018-12-21T09:48:08.555Z,6.50
2018-12-21T09:50:47.790Z,6.70
2018-12-21T09:53:23.219Z,6.90
2018-12-21T09:56:02.283Z,7.10
2018-12-21T09:58:41.557Z,7.20
2018-12-21T10:01:20.676Z,7.50
2018-12-21T10:03:58.274Z,7.50
2018-12-21T10:06:37.471Z,7.40
2018-12-21T10:09:16.532Z,7.20
2018-12-21T10:11:51.894Z,6.90
2018-12-21T10:14:29.305Z,6.70
2018-12-21T10:17:08.254Z,6.40
2018-12-21T10:19:43.447Z,6.00
2018-12-21T10:22:22.591Z,5.80
2018-12-21T10:25:04.175Z,5.60
2018-12-21T10:27:38.772Z,5.50
2018-12-21T10:30:20.817Z,5.40
2018-12-21T10:32:59.682Z,5.40
2018-12-21T10:35:38.897Z,5.30
2018-12-21T10:38:18.199Z,5.20
2018-12-21T10:40:59.633Z,5.10
2018-12-21T10:43:38.226Z,5.00
2018-12-21T10:46:13.529Z,5.00
2018-12-21T10:48:52.927Z,4.90
2018-12-21T10:51:32.524Z,4.90
2018-12-21T10:54:11.390Z,4.90
2018-12-21T10:56:50.618Z,4.90
2018-12-21T10:59:26.254Z,4.90
2018-12-21T11:02:08.601Z,4.90
2018-12-21T11:04:48.403Z,4.90
2018-12-21T11:07:23.608Z,4.90
2018-12-21T11:10:03.527Z,4.90
2018-12-21T11:12:43.068Z,4.90
2018-12-21T11:15:24.772Z,4.90
2018-12-21T11:17:59.623Z,4.90
2018-12-21T11:20:35.035Z,4.90
2018-12-21T11:23:16.882Z,5.00
2018-12-21T11:25:52.112Z,5.00
2018-12-21T11:28:31.051Z,5.00
2018-12-21T11:31:13.618Z,5.00
2018-12-21T11:33:48.394Z,5.00
2018-12-21T11:36:27.726Z,5.00
2018-12-21T11:39:07.031Z,5.00
2018-12-21T11:41:42.641Z,5.00
2018-12-21T11:44:17.658Z,5.00
2018-12-21T11:46:56.786Z,5.00
2018-12-21T11:49:40.378Z,5.10
2018-12-21T11:52:19.368Z,5.10
2018-12-21T11:54:58.996Z,5.10
2018-12-21T11:57:38.049Z,5.10
2018-12-21T12:00:11.430Z,5.10
2018-12-21T12:02:44.288Z,5.10
2018-12-21T12:05:23.395Z,5.10
2018-12-21T12:08:02.572Z,5.10
2018-12-21T12:10:39.939Z,5.10
2018-12-21T12:13:09.160Z,5.20
2018-12-21T12:15:42.043Z,5.20
2018-12-21T12:18:15.272Z,5.20
2018-12-21T12:20:57.017Z,5.20
2018-12-21T12:23:36.020Z,5.30
2018-12-21T12:26:10.978Z,5.30
2018-12-21T12:28:49.733Z,5.30
2018-12-21T12:31:31.518Z,5.30
2018-12-21T12:34:11.378Z,5.30
2018-12-21T12:36:46.153Z,5.30
2018-12-21T12:39:21.740Z,5.40
2018-12-21T12:41:58.334Z,5.40
2018-12-21T12:44:36.372Z,5.50
2018-12-21T12:47:15.230Z,5.50
2018-12-21T12:49:54.653Z,5.50
2018-12-21T12:52:33.861Z,5.50
2018-12-21T12:55:09.160Z,5.60
2018-12-21T12:57:48.371Z,5.60
2018-12-21T13:00:23.495Z,5.60
2018-12-21T13:03:04.283Z,5.60
2018-12-21T13:05:43.789Z,5.60
2018-12-21T13:08:19.281Z,5.60
2018-12-21T13:10:53.893Z,5.60
2018-12-21T13:13:36.637Z,5.60
2018-12-21T13:16:15.663Z,5.70
2018-12-21T13:18:55.871Z,5.70
2018-12-21T13:21:31.747Z,5.70
2018-12-21T13:24:00.888Z,5.70
2018-12-21T13:26:53.570Z,5.70
2018-12-21T13:29:28.501Z,5.70
2018-12-21T13:32:07.575Z,5.60
2018-12-21T13:34:44.921Z,5.60
2018-12-21T13:37:20.083Z,5.50
2018-12-21T13:39:59.736Z,5.60
2018-12-21T13:42:34.735Z,5.60
2018-12-21T13:45:10.110Z,5.70
2018-12-21T13:47:48.819Z,5.80
2018-12-21T13:50:21.904Z,5.90
2018-12-21T13:53:01.475Z,6.20
2018-12-21T13:55:41.148Z,6.30
2018-12-21T13:58:13.900Z,6.50
2018-12-21T14:00:49.498Z,6.50
2018-12-21T14:03:20.145Z,6.60
2018-12-21T14:09:11.880Z,6.80
2018-12-21T14:11:48.273Z,6.80
2018-12-21T14:14:23.513Z,6.90
2018-12-21T14:17:02.309Z,6.80
2018-12-21T14:19:31.853Z,6.80
2018-12-21T14:22:25.281Z,6.90
2018-12-21T14:25:07.053Z,7.00
2018-12-21T14:27:41.814Z,7.10
2018-12-21T14:30:16.977Z,7.20
2018-12-21T14:32:54.566Z,7.20
2018-12-21T14:35:29.582Z,7.30
2018-12-21T14:38:05.024Z,7.40
2018-12-21T14:40:47.780Z,7.70
2018-12-21T14:43:23.256Z,8.10
2018-12-21T14:46:02.750Z,8.20
2018-12-21T14:48:44.898Z,8.30
2018-12-21T14:51:21.937Z,8.30
2018-12-21T14:54:01.508Z,8.30
2018-12-21T14:56:36.782Z,8.30
2018-12-21T14:59:12.177Z,8.20
2018-12-21T15:01:51.907Z,8.40
2018-12-21T15:04:30.864Z,8.40
2018-12-21T15:07:10.185Z,8.50
2018-12-21T15:09:53.057Z,8.60
2018-12-21T15:12:31.378Z,8.60
2018-12-21T15:15:08.897Z,8.70
2018-12-21T15:17:43.940Z,8.80
2018-12-21T15:20:19.145Z,8.80
2018-12-21T15:22:58.797Z,8.80
2018-12-21T15:25:45.885Z,8.90
2018-12-21T15:28:15.069Z,8.80
2018-12-21T15:30:50.284Z,8.90
2018-12-21T15:33:25.548Z,8.80
2018-12-21T15:36:05.149Z,8.80
2018-12-21T15:38:43.985Z,8.90
2018-12-21T15:41:16.911Z,8.90
2018-12-21T15:43:55.815Z,9.00
2018-12-21T15:46:35.022Z,9.00
2018-12-21T15:49:14.214Z,9.00
2018-12-21T15:51:49.599Z,9.00
2018-12-21T15:54:29.041Z,9.00
2018-12-21T15:57:08.217Z,9.10
2018-12-21T15:59:47.574Z,9.20
2018-12-21T16:02:22.865Z,9.20
2018-12-21T16:05:01.825Z,9.30
2018-12-21T16:07:37.114Z,9.40
2018-12-21T16:10:16.471Z,9.40
2018-12-21T16:12:51.776Z,9.30
2018-12-21T16:15:30.913Z,9.40
2018-12-21T16:18:10.045Z,9.40
2018-12-21T16:20:45.351Z,9.40
2018-12-21T16:23:22.749Z,9.40
2018-12-21T16:26:03.623Z,9.60
2018-12-21T16:28:39.230Z,9.70
2018-12-21T16:31:11.799Z,9.60
2018-12-21T16:33:46.505Z,9.70
2018-12-21T16:36:26.780Z,9.70
2018-12-21T16:39:01.816Z,9.70
2018-12-21T16:41:30.968Z,9.80
2018-12-21T16:44:07.525Z,9.80
2018-12-21T16:46:40.275Z,9.80
2018-12-21T16:49:19.738Z,9.80
2018-12-21T16:51:59.038Z,9.90
2018-12-21T16:54:32.195Z,9.90
2018-12-21T16:57:10.887Z,9.90
2018-12-21T16:59:50.091Z,9.90
2018-12-21T17:02:31.851Z,9.90
2018-12-21T17:05:10.437Z,10.00
2018-12-21T17:07:49.801Z,10.00
2018-12-21T17:10:28.917Z,10.00
2018-12-21T17:13:06.116Z,10.00
2018-12-21T17:15:45.214Z,10.00
2018-12-21T17:18:21.354Z,10.00
2018-12-21T17:20:57.974Z,10.10
2018-12-21T17:23:30.945Z,10.00
2018-12-21T17:26:09.604Z,10.10
2018-12-21T17:28:51.473Z,10.20
2018-12-21T17:31:28.906Z,10.20
2018-12-21T17:34:06.442Z,10.20
2018-12-21T17:36:45.207Z,10.10
2018-12-21T17:39:20.508Z,10.10
2018-12-21T17:41:59.623Z,10.10
2018-12-21T17:44:41.284Z,10.10
2018-12-21T17:47:13.855Z,10.10
2018-12-21T17:49:51.436Z,10.10
2018-12-21T17:52:25.541Z,10.10
2018-12-21T17:55:03.579Z,10.00
2018-12-21T17:57:40.390Z,10.00
2018-12-21T18:00:19.939Z,10.00
2018-12-21T18:02:55.549Z,10.10
2018-12-21T18:05:30.131Z,10.10
2018-12-21T18:08:05.542Z,10.10
2018-12-21T18:10:34.685Z,10.10
2018-12-21T18:13:12.129Z,10.10
2018-12-21T18:15:51.915Z,10.10
2018-12-21T18:20:54.072Z,10.10
2018-12-21T18:23:31.800Z,10.00
2018-12-21T18:26:10.922Z,9.90
2018-12-21T18:28:50.091Z,10.00
2018-12-21T18:31:27.754Z,10.00
2018-12-21T18:33:57.935Z,10.10
2018-12-21T18:36:35.323Z,10.10
2018-12-21T18:39:12.697Z,10.10
2018-12-21T18:41:54.355Z,10.10
2018-12-21T18:44:29.131Z,10.10
2018-12-21T18:47:06.287Z,10.20
2018-12-21T18:49:45.784Z,10.10
2018-12-21T18:52:21.449Z,10.20
2018-12-21T18:55:03.419Z,10.20
2018-12-21T18:57:38.791Z,10.20
2018-12-21T19:00:18.108Z,10.30
2018-12-21T19:02:51.218Z,10.20
2018-12-21T19:05:30.402Z,10.10
2018-12-21T19:08:05.492Z,10.20
2018-12-21T19:10:40.846Z,10.20
2018-12-21T19:13:16.252Z,10.20
2018-12-21T19:15:51.394Z,10.10
2018-12-21T19:18:28.694Z,10.10
2018-12-21T19:21:04.040Z,10.10
2018-12-21T19:23:39.085Z,10.00
2018-12-21T19:26:15.092Z,10.00
2018-12-21T19:28:52.474Z,9.90
2018-12-21T19:31:29.147Z,9.90
2018-12-21T19:33:59.879Z,9.90
2018-12-21T19:36:40.949Z,9.90
2018-12-21T19:39:16.050Z,9.90
2018-12-21T19:41:51.074Z,10.00
2018-12-21T19:44:27.669Z,9.90
2018-12-21T19:47:00.261Z,9.90
2018-12-21T19:49:35.834Z,9.90
2018-12-21T19:52:15.106Z,9.90
2018-12-21T19:54:52.456Z,9.90
2018-12-21T19:57:31.829Z,9.80
2018-12-21T20:00:07.782Z,9.90
2018-12-21T20:02:43.311Z,9.80
2018-12-21T20:05:22.565Z,9.80
2018-12-21T20:08:02.037Z,9.90
2018-12-21T20:10:40.039Z,9.80
2018-12-21T20:13:14.839Z,9.80
2018-12-21T20:15:53.992Z,9.90
2018-12-21T20:18:29.140Z,9.90
2018-12-21T20:21:10.944Z,9.90
2018-12-21T20:26:17.936Z,9.80
2018-12-21T20:28:53.518Z,9.80
2018-12-21T20:31:29.180Z,9.90
2018-12-21T20:34:04.052Z,9.80
2018-12-21T20:36:43.438Z,9.80
2018-12-21T20:39:20.084Z,9.70
2018-12-21T20:41:54.886Z,9.70
2018-12-21T20:44:30.163Z,9.70
2018-12-21T20:47:09.536Z,9.80
2018-12-21T20:49:44.547Z,9.80
2018-12-21T20:52:21.893Z,9.70
2018-12-21T20:54:58.188Z,9.70
2018-12-21T20:57:35.288Z,9.90
2018-12-21T21:00:15.278Z,9.80
2018-12-21T21:02:50.443Z,9.80
2018-12-21T21:05:25.577Z,9.70
2018-12-21T21:08:07.347Z,9.90
2018-12-21T21:10:42.359Z,9.90
2018-12-21T21:13:22.331Z,9.90
2018-12-21T21:15:57.419Z,10.00
2018-12-21T21:18:39.302Z,9.90
2018-12-21T21:21:19.068Z,10.00
2018-12-21T21:24:00.461Z,10.00
2018-12-21T21:26:33.046Z,10.00
2018-12-21T21:29:09.692Z,10.00
2018-12-21T21:31:46.120Z,10.00
2018-12-21T21:34:21.798Z,10.00
2018-12-21T21:36:57.142Z,10.00
2018-12-21T21:39:32.325Z,10.00
2018-12-21T21:42:08.776Z,10.10
2018-12-21T21:44:48.382Z,10.00
2018-12-21T21:47:24.063Z,10.00
2018-12-21T21:49:58.940Z,10.00
2018-12-21T21:52:36.375Z,10.00
2018-12-21T21:55:11.370Z,10.00
2018-12-21T21:57:51.767Z,9.90
2018-12-21T22:00:27.073Z,10.00
2018-12-21T22:03:02.562Z,9.90
2018-12-21T22:05:39.904Z,10.00
2018-12-21T22:08:15.314Z,9.90
2018-12-21T22:17:04.646Z,9.90
2018-12-21T22:19:39.472Z,9.90
2018-12-21T22:22:15.926Z,10.00
2018-12-21T22:24:51.066Z,10.00
2018-12-21T22:27:26.161Z,10.10
2018-12-21T22:30:01.428Z,10.10
2018-12-21T22:32:36.618Z,10.10
2018-12-21T22:35:12.654Z,10.20
2018-12-21T22:37:51.897Z,10.20
2018-12-21T22:40:27.936Z,10.10
2018-12-21T22:43:03.294Z,10.10
2018-12-21T22:45:38.680Z,10.10
2018-12-21T22:48:14.001Z,10.20
2018-12-21T22:50:46.996Z,10.20
2018-12-21T22:53:22.799Z,10.10
2018-12-21T22:55:58.447Z,10.10
2018-12-21T22:58:40.167Z,10.20
2018-12-21T23:01:15.064Z,10.20
2018-12-21T23:03:50.251Z,10.20
2018-12-21T23:06:25.627Z,10.30
2018-12-21T23:09:01.002Z,10.20
2018-12-21T23:11:39.443Z,10.30
2018-12-21T23:14:14.638Z,10.20
2018-12-21T23:16:50.333Z,10.30
2018-12-21T23:19:27.617Z,10.40
2018-12-21T23:22:02.817Z,10.30
2018-12-21T23:24:38.191Z,10.30
2018-12-21T23:27:13.354Z,10.40
2018-12-21T23:29:49.031Z,10.50
2018-12-21T23:32:23.902Z,10.50
2018-12-21T23:34:58.972Z,10.40
2018-12-21T23:37:34.428Z,10.40
2018-12-21T23:40:15.442Z,10.40
2018-12-21T23:42:57.705Z,10.40
2018-12-21T23:45:33.435Z,10.40
2018-12-21T23:48:08.793Z,10.30
2018-12-21T23:50:48.827Z,10.40
2018-12-21T23:53:28.089Z,10.30
2018-12-21T23:56:11.946Z,10.30
2018-12-21T23:58:46.635Z,10.30
